createdAt,value
2018-11-07T00:00:51.228Z,7.77
2018-11-07T00:03:22.233Z,7.74
2018-11-07T00:05:53.600Z,7.75
2018-11-07T00:08:24.798Z,7.75
2018-11-07T00:11:03.330Z,7.68
2018-11-07T00:13:35.247Z,7.75
2018-11-07T00:16:07.166Z,7.77
2018-11-07T00:18:39.201Z,7.77
2018-11-07T00:21:10.635Z,7.87
2018-11-07T00:23:42.546Z,7.85
2018-11-07T00:26:14.970Z,7.81
2018-11-07T00:28:47.565Z,7.67
2018-11-07T00:31:18.992Z,7.61
2018-11-07T00:33:50.433Z,7.49
2018-11-07T00:36:22.248Z,7.40
2018-11-07T00:38:54.419Z,7.56
2018-11-07T00:41:26.550Z,7.56
2018-11-07T00:43:58.504Z,7.63
2018-11-07T00:46:29.707Z,7.57
2018-11-07T00:49:01.579Z,7.53
2018-11-07T00:51:33.380Z,7.53
2018-11-07T00:54:04.781Z,7.50
2018-11-07T00:56:36.700Z,7.42
2018-11-07T00:59:07.730Z,7.43
2018-11-07T01:01:38.777Z,7.41
2018-11-07T01:04:10.650Z,7.32
2018-11-07T01:06:42.262Z,7.25
2018-11-07T01:09:13.911Z,7.18
2018-11-07T01:11:45.412Z,7.20
2018-11-07T01:14:16.851Z,7.21
2018-11-07T01:16:48.905Z,7.23
2018-11-07T01:19:20.739Z,7.23
2018-11-07T01:21:51.925Z,7.33
2018-11-07T01:24:23.885Z,7.41
2018-11-07T01:26:54.925Z,7.39
2018-11-07T01:29:26.977Z,7.33
2018-11-07T01:31:58.091Z,7.27
2018-11-07T01:34:30.010Z,7.16
2018-11-07T01:37:02.021Z,7.11
2018-11-07T01:39:33.090Z,7.16
2018-11-07T01:42:04.445Z,7.11
2018-11-07T01:44:35.330Z,7.13
2018-11-07T01:47:06.467Z,7.10
2018-11-07T01:49:39.157Z,7.02
2018-11-07T01:52:10.554Z,7.00
2018-11-07T01:54:41.925Z,7.07
2018-11-07T01:57:13.072Z,7.07
2018-11-07T01:59:44.533Z,6.97
2018-11-07T02:02:16.543Z,7.02
2018-11-07T02:04:47.577Z,7.09
2018-11-07T02:07:19.952Z,6.98
2018-11-07T02:09:51.802Z,6.96
2018-11-07T02:12:33.160Z,6.93
2018-11-07T02:15:04.222Z,6.93
2018-11-07T02:17:35.638Z,6.98
2018-11-07T02:20:07.468Z,7.04
2018-11-07T02:22:38.479Z,6.89
2018-11-07T02:25:10.562Z,6.88
2018-11-07T02:27:43.741Z,6.89
2018-11-07T02:30:17.014Z,6.84
2018-11-07T02:32:48.164Z,6.86
2018-11-07T02:35:19.220Z,6.84
2018-11-07T02:37:50.583Z,6.77
2018-11-07T02:40:22.415Z,6.72
2018-11-07T02:42:54.385Z,6.70
2018-11-07T02:45:25.396Z,6.65
2018-11-07T02:47:57.703Z,6.66
2018-11-07T02:50:29.512Z,6.67
2018-11-07T02:53:02.065Z,6.78
2018-11-07T02:55:33.565Z,6.83
2018-11-07T02:58:06.256Z,6.80
2018-11-07T03:00:39.173Z,6.84
2018-11-07T03:03:10.632Z,6.77
2018-11-07T03:05:42.056Z,6.76
2018-11-07T03:08:13.919Z,6.69
2018-11-07T03:10:46.473Z,6.76
2018-11-07T03:13:18.161Z,6.76
2018-11-07T03:15:49.684Z,6.76
2018-11-07T03:18:20.735Z,6.75
2018-11-07T03:20:52.687Z,6.79
2018-11-07T03:23:24.743Z,6.87
2018-11-07T03:25:55.869Z,6.90
2018-11-07T03:28:27.317Z,6.95
2018-11-07T03:30:58.725Z,6.89
2018-11-07T03:33:30.073Z,6.90
2018-11-07T03:36:02.024Z,6.90
2018-11-07T03:38:35.797Z,6.93
2018-11-07T03:41:06.881Z,6.95
2018-11-07T03:43:38.096Z,6.96
2018-11-07T03:46:09.094Z,6.88
2018-11-07T03:48:40.562Z,6.89
2018-11-07T03:51:11.746Z,6.94
2018-11-07T03:53:42.722Z,6.97
2018-11-07T03:56:13.826Z,6.91
2018-11-07T03:58:46.368Z,6.79
2018-11-07T04:01:18.281Z,6.77
2018-11-07T04:03:49.609Z,6.75
2018-11-07T04:06:21.485Z,6.73
2018-11-07T04:08:53.955Z,6.72
2018-11-07T04:11:25.390Z,6.76
2018-11-07T04:13:57.503Z,6.87
2018-11-07T04:16:29.570Z,6.81
2018-11-07T04:19:00.729Z,6.87
2018-11-07T04:21:33.491Z,6.86
2018-11-07T04:24:05.294Z,6.69
2018-11-07T04:26:37.496Z,6.70
2018-11-07T04:29:09.602Z,6.74
2018-11-07T04:31:41.751Z,6.71
2018-11-07T04:34:12.823Z,6.64
2018-11-07T04:36:43.895Z,6.65
2018-11-07T04:39:15.881Z,6.65
2018-11-07T04:41:47.214Z,6.58
2018-11-07T04:44:18.298Z,6.51
2018-11-07T04:46:49.340Z,6.40
2018-11-07T04:49:21.769Z,6.32
2018-11-07T04:51:54.706Z,6.31
2018-11-07T04:54:25.889Z,6.35
2018-11-07T04:56:57.303Z,6.38
2018-11-07T04:59:29.369Z,6.32
2018-11-07T05:02:00.903Z,6.31
2018-11-07T05:04:32.744Z,6.22
2018-11-07T05:07:04.142Z,6.22
2018-11-07T05:09:36.982Z,6.22
2018-11-07T05:12:08.273Z,6.25
2018-11-07T05:14:41.953Z,6.26
2018-11-07T05:17:13.338Z,6.25
2018-11-07T05:19:44.856Z,6.35
2018-11-07T05:22:17.182Z,6.22
2018-11-07T05:24:50.534Z,6.10
2018-11-07T05:27:22.033Z,6.14
2018-11-07T05:29:54.422Z,6.15
2018-11-07T05:32:26.899Z,6.15
2018-11-07T05:34:59.664Z,6.07
2018-11-07T05:37:32.585Z,6.07
2018-11-07T05:40:04.939Z,6.06
2018-11-07T05:42:36.412Z,5.99
2018-11-07T05:45:07.718Z,5.93
2018-11-07T05:47:39.006Z,5.92
2018-11-07T05:50:10.822Z,5.94
2018-11-07T05:52:44.860Z,5.95
2018-11-07T05:55:16.329Z,5.97
2018-11-07T05:57:48.108Z,6.06
2018-11-07T06:00:19.544Z,6.03
2018-11-07T06:02:51.882Z,6.00
2018-11-07T06:05:22.976Z,6.10
2018-11-07T06:07:54.767Z,6.13
2018-11-07T06:10:27.405Z,6.06
2018-11-07T06:12:59.185Z,6.06
2018-11-07T06:15:31.602Z,6.09
2018-11-07T06:18:02.672Z,6.10
2018-11-07T06:20:34.239Z,6.12
2018-11-07T06:23:05.361Z,6.18
2018-11-07T06:25:38.101Z,6.20
2018-11-07T06:28:10.079Z,6.20
2018-11-07T06:30:41.735Z,6.07
2018-11-07T06:33:12.824Z,5.95
2018-11-07T06:35:43.895Z,5.94
2018-11-07T06:38:16.417Z,6.00
2018-11-07T06:40:47.557Z,6.11
2018-11-07T06:43:18.923Z,6.02
2018-11-07T06:45:51.292Z,5.92
2018-11-07T06:48:24.673Z,5.92
2018-11-07T06:50:58.314Z,5.95
2018-11-07T06:53:31.240Z,5.99
2018-11-07T06:56:02.437Z,6.00
2018-11-07T06:58:33.883Z,6.03
2018-11-07T07:01:06.076Z,5.99
2018-11-07T07:03:37.281Z,5.92
2018-11-07T07:06:09.848Z,5.90
2018-11-07T07:08:41.378Z,5.90
2018-11-07T07:11:13.969Z,5.94
2018-11-07T07:13:45.021Z,5.99
2018-11-07T07:16:17.515Z,6.05
2018-11-07T07:18:49.443Z,6.02
2018-11-07T07:21:21.449Z,6.03
2018-11-07T07:23:53.936Z,6.08
2018-11-07T07:26:26.237Z,6.11
2018-11-07T07:29:00.324Z,6.12
2018-11-07T07:31:31.812Z,6.21
2018-11-07T07:34:03.243Z,6.27
2018-11-07T07:36:37.243Z,6.32
2018-11-07T07:39:08.050Z,6.34
2018-11-07T07:41:46.030Z,6.45
2018-11-07T07:44:19.039Z,6.45
2018-11-07T07:46:50.946Z,6.45
2018-11-07T07:49:24.045Z,6.42
2018-11-07T07:51:56.685Z,6.40
2018-11-07T07:54:37.556Z,6.45
2018-11-07T07:57:11.165Z,6.62
2018-11-07T07:59:42.176Z,6.70
2018-11-07T08:02:14.146Z,6.72
2018-11-07T08:04:45.325Z,6.85
2018-11-07T08:07:20.313Z,6.97
2018-11-07T08:09:49.545Z,6.99
2018-11-07T08:12:21.294Z,6.90
2018-11-07T08:14:52.339Z,7.16
2018-11-07T08:17:23.415Z,7.22
2018-11-07T08:19:55.100Z,7.35
2018-11-07T08:22:27.044Z,7.54
2018-11-07T08:24:58.164Z,7.53
2018-11-07T08:27:29.315Z,7.57
2018-11-07T08:30:01.440Z,7.61
2018-11-07T08:32:33.051Z,7.78
2018-11-07T08:35:04.586Z,7.98
2018-11-07T08:37:37.127Z,8.11
2018-11-07T08:40:13.713Z,8.23
2018-11-07T08:42:44.837Z,8.23
2018-11-07T08:45:16.247Z,8.32
2018-11-07T08:47:47.877Z,8.33
2018-11-07T08:50:21.485Z,8.41
2018-11-07T08:52:53.168Z,8.41
2018-11-07T08:55:24.964Z,8.55
2018-11-07T08:57:56.045Z,8.62
2018-11-07T09:00:27.107Z,8.78
2018-11-07T09:02:59.774Z,8.84
2018-11-07T09:05:30.836Z,8.94
2018-11-07T09:08:02.305Z,9.00
2018-11-07T09:10:35.070Z,9.04
2018-11-07T09:13:07.014Z,9.20
2018-11-07T09:15:38.095Z,9.29
2018-11-07T09:18:09.601Z,9.24
2018-11-07T09:20:40.652Z,9.23
2018-11-07T09:23:11.737Z,9.24
2018-11-07T09:25:43.614Z,9.26
2018-11-07T09:28:16.197Z,9.30
2018-11-07T09:30:47.219Z,9.46
2018-11-07T09:33:18.715Z,9.50
2018-11-07T09:38:22.505Z,9.69
2018-11-07T09:40:54.008Z,9.70
2018-11-07T09:43:25.089Z,9.80
2018-11-07T09:45:57.288Z,9.91
2018-11-07T09:48:28.359Z,10.00
2018-11-07T09:51:00.799Z,10.18
2018-11-07T09:53:31.946Z,10.34
2018-11-07T09:56:03.628Z,10.51
2018-11-07T09:58:35.432Z,10.71
2018-11-07T10:01:06.893Z,10.93
2018-11-07T10:03:38.160Z,11.17
2018-11-07T10:06:09.512Z,11.39
2018-11-07T10:08:40.680Z,11.69
2018-11-07T10:11:11.763Z,11.86
2018-11-07T10:13:42.849Z,12.03
2018-11-07T10:16:14.305Z,12.19
2018-11-07T10:18:47.784Z,12.31
2018-11-07T10:21:19.179Z,12.35
2018-11-07T10:23:51.481Z,12.52
2018-11-07T10:26:23.669Z,12.71
2018-11-07T10:28:56.420Z,12.81
2018-11-07T10:31:27.811Z,12.89
2018-11-07T10:34:00.339Z,13.13
2018-11-07T10:36:31.430Z,13.18
2018-11-07T10:39:03.653Z,13.33
2018-11-07T10:41:36.496Z,13.38
2018-11-07T10:44:08.632Z,13.39
2018-11-07T10:46:39.680Z,13.35
2018-11-07T10:49:11.311Z,13.37
2018-11-07T10:51:43.424Z,13.44
2018-11-07T10:54:15.435Z,13.59
2018-11-07T10:56:46.863Z,13.64
2018-11-07T10:59:18.543Z,13.65
2018-11-07T11:02:23.491Z,13.60
2018-11-07T11:04:54.604Z,13.57
2018-11-07T11:07:26.251Z,13.59
2018-11-07T11:09:58.379Z,13.86
2018-11-07T11:12:29.845Z,13.98
2018-11-07T11:15:01.716Z,14.19
2018-11-07T11:17:34.238Z,14.33
2018-11-07T11:20:05.934Z,14.39
2018-11-07T11:22:37.080Z,14.48
2018-11-07T11:25:09.359Z,14.66
2018-11-07T11:27:40.465Z,14.79
2018-11-07T11:30:12.692Z,14.87
2018-11-07T11:32:43.728Z,14.90
2018-11-07T11:35:14.881Z,14.97
2018-11-07T11:37:46.325Z,15.05
2018-11-07T11:40:17.389Z,15.10
2018-11-07T11:42:53.240Z,15.27
2018-11-07T11:45:24.360Z,15.33
2018-11-07T11:47:55.839Z,15.43
2018-11-07T11:50:27.087Z,15.44
2018-11-07T11:52:58.164Z,15.48
2018-11-07T11:55:29.197Z,15.56
2018-11-07T11:58:01.408Z,15.67
2018-11-07T12:00:32.520Z,15.60
2018-11-07T12:03:04.536Z,15.70
2018-11-07T12:05:36.499Z,15.74
2018-11-07T12:08:08.525Z,15.71
2018-11-07T12:10:39.695Z,15.69
2018-11-07T12:13:12.165Z,15.78
2018-11-07T12:15:45.391Z,15.85
2018-11-07T12:18:16.464Z,16.01
2018-11-07T12:20:47.551Z,16.05
2018-11-07T12:23:18.602Z,15.96
2018-11-07T12:25:49.685Z,16.14
2018-11-07T12:28:21.813Z,16.14
2018-11-07T12:30:53.267Z,16.12
2018-11-07T12:33:25.636Z,16.14
2018-11-07T12:35:58.288Z,16.07
2018-11-07T12:38:30.673Z,16.07
2018-11-07T12:41:01.804Z,16.14
2018-11-07T12:43:33.895Z,16.21
2018-11-07T12:46:06.230Z,16.23
2018-11-07T12:48:38.729Z,16.32
2018-11-07T12:51:11.104Z,16.31
2018-11-07T12:53:44.188Z,16.24
2018-11-07T12:56:15.283Z,16.24
2018-11-07T12:58:46.378Z,16.42
2018-11-07T13:01:19.577Z,16.32
2018-11-07T13:03:53.752Z,16.58
2018-11-07T13:06:24.978Z,16.60
2018-11-07T13:08:56.933Z,16.60
2018-11-07T13:11:28.072Z,16.59
2018-11-07T13:13:59.027Z,16.56
2018-11-07T13:16:31.159Z,16.50
2018-11-07T13:19:03.640Z,16.53
2018-11-07T13:21:34.661Z,16.46
2018-11-07T13:24:06.130Z,16.55
2018-11-07T13:26:38.474Z,16.54
2018-11-07T13:29:09.592Z,16.54
2018-11-07T13:31:41.107Z,16.49
2018-11-07T13:34:13.811Z,16.29
2018-11-07T13:36:46.347Z,16.29
2018-11-07T13:39:18.156Z,16.15
2018-11-07T13:41:48.891Z,16.15
2018-11-07T13:44:20.366Z,16.16
2018-11-07T13:46:51.509Z,16.16
2018-11-07T13:49:23.959Z,16.17
2018-11-07T13:51:54.975Z,16.03
2018-11-07T13:54:28.330Z,16.03
2018-11-07T13:57:00.338Z,16.02
2018-11-07T13:59:31.771Z,15.79
2018-11-07T14:02:03.694Z,15.79
2018-11-07T14:04:35.277Z,15.60
2018-11-07T14:07:07.074Z,15.36
2018-11-07T14:09:38.685Z,15.17
2018-11-07T14:12:10.062Z,15.17
2018-11-07T14:14:41.135Z,15.16
2018-11-07T14:17:12.274Z,15.13
2018-11-07T14:19:44.260Z,15.09
2018-11-07T14:22:16.679Z,15.00
2018-11-07T14:24:47.705Z,15.02
2018-11-07T14:27:18.934Z,14.85
2018-11-07T14:29:51.141Z,14.72
2018-11-07T14:32:22.264Z,14.66
2018-11-07T14:34:53.291Z,14.52
2018-11-07T14:37:24.826Z,14.41
2018-11-07T14:39:56.447Z,14.27
2018-11-07T14:42:28.435Z,14.12
2018-11-07T14:44:59.668Z,14.04
2018-11-07T14:47:30.731Z,13.98
2018-11-07T14:50:02.700Z,13.87
2018-11-07T14:52:35.021Z,13.81
2018-11-07T14:55:06.172Z,13.74
2018-11-07T14:57:37.318Z,13.63
2018-11-07T15:00:12.672Z,13.49
2018-11-07T15:02:44.435Z,13.42
2018-11-07T15:05:16.281Z,13.31
2018-11-07T15:07:49.864Z,13.27
2018-11-07T15:10:22.001Z,13.28
2018-11-07T15:12:53.062Z,13.17
2018-11-07T15:15:24.562Z,13.06
2018-11-07T15:17:57.752Z,12.97
2018-11-07T15:20:28.835Z,12.85
2018-11-07T15:23:00.850Z,12.73
2018-11-07T15:25:32.365Z,12.67
2018-11-07T15:28:04.499Z,12.56
2018-11-07T15:30:36.379Z,12.48
2018-11-07T15:33:07.842Z,12.37
2018-11-07T15:35:41.872Z,12.27
2018-11-07T15:38:13.886Z,12.22
2018-11-07T15:40:45.127Z,12.11
2018-11-07T15:43:16.249Z,11.96
2018-11-07T15:45:49.325Z,11.84
2018-11-07T15:48:20.412Z,11.80
2018-11-07T15:51:08.464Z,11.60
2018-11-07T15:53:39.668Z,11.47
2018-11-07T15:56:11.173Z,11.39
2018-11-07T15:58:42.279Z,11.31
2018-11-07T16:01:14.404Z,11.29
2018-11-07T16:03:51.689Z,11.22
2018-11-07T16:06:23.007Z,11.18
2018-11-07T16:08:55.237Z,11.14
2018-11-07T16:11:30.874Z,11.07
2018-11-07T16:14:03.276Z,11.01
2018-11-07T16:16:40.317Z,11.02
2018-11-07T16:19:12.703Z,10.32
2018-11-07T16:21:57.049Z,10.76
2018-11-07T16:24:28.126Z,10.65
2018-11-07T16:26:59.135Z,10.61
2018-11-07T16:29:30.460Z,10.57
2018-11-07T16:32:02.433Z,10.56
2018-11-07T16:34:33.548Z,10.44
2018-11-07T16:37:11.903Z,10.35
2018-11-07T16:39:45.045Z,10.27
2018-11-07T16:42:17.595Z,10.19
2018-11-07T16:44:48.707Z,10.16
2018-11-07T16:47:20.823Z,10.20
2018-11-07T16:49:51.869Z,10.10
2018-11-07T16:52:31.412Z,10.02
2018-11-07T16:55:02.860Z,10.04
2018-11-07T16:57:35.499Z,10.03
2018-11-07T17:00:09.197Z,9.92
2018-11-07T17:02:42.556Z,9.89
2018-11-07T17:05:16.699Z,9.84
2018-11-07T17:07:49.026Z,9.75
2018-11-07T17:10:20.629Z,9.75
2018-11-07T17:12:53.062Z,9.70
2018-11-07T17:15:25.138Z,9.72
2018-11-07T17:17:56.514Z,9.58
2018-11-07T17:20:29.919Z,9.52
2018-11-07T17:23:03.449Z,9.51
2018-11-07T17:25:35.876Z,9.52
2018-11-07T17:28:08.565Z,9.48
2018-11-07T17:30:42.164Z,9.42
2018-11-07T17:33:13.655Z,9.36
2018-11-07T17:35:48.948Z,9.31
2018-11-07T17:38:21.182Z,9.32
2018-11-07T17:40:58.001Z,9.25
2018-11-07T17:43:32.108Z,9.24
2018-11-07T17:46:03.692Z,9.17
2018-11-07T17:48:35.529Z,9.17
2018-11-07T17:51:08.538Z,9.20
2018-11-07T17:53:39.716Z,9.07
2018-11-07T17:56:10.802Z,9.03
2018-11-07T17:58:43.854Z,9.06
2018-11-07T18:01:16.349Z,9.04
2018-11-07T18:03:48.862Z,9.01
2018-11-07T18:06:28.253Z,9.02
2018-11-07T18:09:01.167Z,9.03
2018-11-07T18:11:32.446Z,9.00
2018-11-07T18:14:04.563Z,8.97
2018-11-07T18:16:41.400Z,9.02
2018-11-07T18:19:14.790Z,8.99
2018-11-07T18:21:47.217Z,8.92
2018-11-07T18:24:24.336Z,8.91
2018-11-07T18:26:55.351Z,8.87
2018-11-07T18:29:28.537Z,8.86
2018-11-07T18:32:02.155Z,8.92
2018-11-07T18:34:35.816Z,8.83
2018-11-07T18:37:07.838Z,8.93
2018-11-07T18:39:39.777Z,8.85
2018-11-07T18:42:11.835Z,8.77
2018-11-07T18:44:43.888Z,8.83
2018-11-07T18:47:14.981Z,8.74
2018-11-07T18:49:46.038Z,8.80
2018-11-07T18:52:19.473Z,8.85
2018-11-07T18:54:50.564Z,8.85
2018-11-07T18:57:21.779Z,8.75
2018-11-07T18:59:52.943Z,8.69
2018-11-07T19:02:25.008Z,8.68
2018-11-07T19:04:56.983Z,8.66
2018-11-07T19:07:28.143Z,8.59
2018-11-07T19:10:00.512Z,8.52
2018-11-07T19:12:35.961Z,8.50
2018-11-07T19:15:17.049Z,8.48
2018-11-07T19:17:52.666Z,7.59
2018-11-07T19:20:27.788Z,8.36
2018-11-07T19:23:01.101Z,8.26
2018-11-07T19:25:33.059Z,8.23
2018-11-07T19:28:05.092Z,8.22
2018-11-07T19:30:37.150Z,8.18
2018-11-07T19:33:09.083Z,8.15
2018-11-07T19:35:41.256Z,8.18
2018-11-07T19:38:12.857Z,8.19
2018-11-07T19:40:44.877Z,8.21
2018-11-07T19:43:16.036Z,8.16
2018-11-07T19:45:47.124Z,8.11
2018-11-07T19:48:18.840Z,8.06
2018-11-07T19:50:54.358Z,8.06
2018-11-07T19:53:26.792Z,8.01
2018-11-07T19:56:00.506Z,8.03
2018-11-07T19:58:31.680Z,7.97
2018-11-07T20:01:03.741Z,7.90
2018-11-07T20:03:36.188Z,7.84
2018-11-07T20:06:07.502Z,7.74
2018-11-07T20:08:38.824Z,7.74
2018-11-07T20:11:10.435Z,7.71
2018-11-07T20:13:43.345Z,7.76
2018-11-07T20:16:14.992Z,7.81
2018-11-07T20:18:46.216Z,7.77
2018-11-07T20:21:19.438Z,7.74
2018-11-07T20:23:51.808Z,7.77
2018-11-07T20:26:24.726Z,7.75
2018-11-07T20:28:57.859Z,7.74
2018-11-07T20:31:28.896Z,7.74
2018-11-07T20:34:00.927Z,7.75
2018-11-07T20:36:32.035Z,7.76
2018-11-07T20:39:04.217Z,7.76
2018-11-07T20:41:35.752Z,7.72
2018-11-07T20:44:07.185Z,7.70
2018-11-07T20:46:38.669Z,7.77
2018-11-07T20:49:10.737Z,7.77
2018-11-07T20:51:41.775Z,7.77
2018-11-07T20:54:25.114Z,7.75
2018-11-07T20:56:57.279Z,7.74
2018-11-07T20:59:29.380Z,7.71
2018-11-07T21:02:00.570Z,7.75
2018-11-07T21:04:31.901Z,7.75
2018-11-07T21:07:04.106Z,7.71
2018-11-07T21:09:35.472Z,7.66
2018-11-07T21:12:07.343Z,7.65
2018-11-07T21:14:39.985Z,7.68
2018-11-07T21:17:12.317Z,7.71
2018-11-07T21:19:43.405Z,7.62
2018-11-07T21:22:14.906Z,7.59
2018-11-07T21:24:48.048Z,7.51
2018-11-07T21:27:19.814Z,7.52
2018-11-07T21:29:51.137Z,7.54
2018-11-07T21:32:23.059Z,7.55
2018-11-07T21:34:54.310Z,7.54
2018-11-07T21:37:26.289Z,7.52
2018-11-07T21:39:57.406Z,7.52
2018-11-07T21:42:30.663Z,7.51
2018-11-07T21:45:01.702Z,7.64
2018-11-07T21:47:32.745Z,7.60
2018-11-07T21:50:03.739Z,7.60
2018-11-07T21:52:34.829Z,7.72
2018-11-07T21:55:06.541Z,7.83
2018-11-07T21:57:37.914Z,7.90
2018-11-07T22:00:18.125Z,7.90
2018-11-07T22:02:52.573Z,7.86
2018-11-07T22:05:23.970Z,7.82
2018-11-07T22:07:54.997Z,7.92
2018-11-07T22:10:27.568Z,8.06
2018-11-07T22:12:59.525Z,8.07
2018-11-07T22:15:32.808Z,8.04
2018-11-07T22:18:05.225Z,8.08
2018-11-07T22:20:37.642Z,8.08
2018-11-07T22:23:08.759Z,8.15
2018-11-07T22:25:40.224Z,8.13
2018-11-07T22:28:11.668Z,8.16
2018-11-07T22:30:42.682Z,8.18
2018-11-07T22:33:14.269Z,8.28
2018-11-07T22:35:47.120Z,8.32
2018-11-07T22:38:18.793Z,8.39
2018-11-07T22:40:49.719Z,8.51
2018-11-07T22:43:21.703Z,8.53
2018-11-07T22:45:52.889Z,8.52
2018-11-07T22:48:24.494Z,8.48
2018-11-07T22:50:56.006Z,8.50
2018-11-07T22:53:28.411Z,8.50
2018-11-07T22:55:59.601Z,8.51
2018-11-07T22:58:31.050Z,8.56
2018-11-07T23:01:20.531Z,8.59
2018-11-07T23:03:53.099Z,8.64
2018-11-07T23:06:24.945Z,8.67
2018-11-07T23:08:56.808Z,8.74
2018-11-07T23:11:27.857Z,8.74
2018-11-07T23:13:59.636Z,8.79
2018-11-07T23:16:32.036Z,8.85
2018-11-07T23:19:03.118Z,8.88
2018-11-07T23:21:34.304Z,8.87
2018-11-07T23:24:05.807Z,8.90
2018-11-07T23:26:36.924Z,8.90
2018-11-07T23:29:08.451Z,8.89
2018-11-07T23:31:39.472Z,8.88
2018-11-07T23:34:11.024Z,8.86
2018-11-07T23:36:42.202Z,8.82
2018-11-07T23:39:13.217Z,8.83
2018-11-07T23:41:44.235Z,8.87
2018-11-07T23:44:15.337Z,8.86
2018-11-07T23:46:48.042Z,8.84
2018-11-07T23:49:19.271Z,8.81
2018-11-07T23:51:52.095Z,8.84
2018-11-07T23:54:24.652Z,8.87
2018-11-07T23:56:56.494Z,8.87
2018-11-07T23:59:27.525Z,8.90
